sensor_id;sensor_type;location;lat;lon;timestamp;pressure;altitude;pressure_sealevel;temperature;humidity
77517;BME280;68414;53.946;27.634;2024-02-21T00:00:20;98965.796875;;;2.740000;77.253906
77517;BME280;68414;53.946;27.634;2024-02-21T00:01:21;98969.250000;;;2.750000;75.796875
77517;BME280;68414;53.946;27.634;2024-02-21T00:02:20;98971.359375;;;2.730000;75.271484
77517;BME280;68414;53.946;27.634;2024-02-21T00:03:20;98974.312500;;;2.760000;75.984375
77517;BME280;68414;53.946;27.634;2024-02-21T00:04:20;98971.906250;;;2.750000;75.568359
77517;BME280;68414;53.946;27.634;2024-02-21T00:05:20;98961.562500;;;2.780000;75.868164
77517;BME280;68414;53.946;27.634;2024-02-21T00:06:20;98967.421875;;;2.800000;75.525391
77517;BME280;68414;53.946;27.634;2024-02-21T00:07:20;98966.929688;;;2.830000;75.877930
77517;BME280;68414;53.946;27.634;2024-02-21T00:08:20;98972.187500;;;2.780000;74.148438
77517;BME280;68414;53.946;27.634;2024-02-21T00:09:20;98968.953125;;;2.710000;75.115234
77517;BME280;68414;53.946;27.634;2024-02-21T00:10:20;98965.500000;;;2.710000;75.506836
77517;BME280;68414;53.946;27.634;2024-02-21T00:11:20;98973.156250;;;2.670000;75.043945
77517;BME280;68414;53.946;27.634;2024-02-21T00:12:20;98965.687500;;;2.640000;75.548828
77517;BME280;68414;53.946;27.634;2024-02-21T00:13:20;98974.203125;;;2.660000;75.553711
77517;BME280;68414;53.946;27.634;2024-02-21T00:14:20;98964.203125;;;2.730000;76.088867
77517;BME280;68414;53.946;27.634;2024-02-21T00:15:20;98965.023438;;;2.790000;76.249023
77517;BME280;68414;53.946;27.634;2024-02-21T00:16:20;98966.976562;;;2.880000;76.168945
77517;BME280;68414;53.946;27.634;2024-02-21T00:17:21;98967.328125;;;2.970000;75.978516
77517;BME280;68414;53.946;27.634;2024-02-21T00:18:20;98968.476562;;;3.060000;75.634766
77517;BME280;68414;53.946;27.634;2024-02-21T00:19:20;98966.921875;;;3.100000;74.946289
77517;BME280;68414;53.946;27.634;2024-02-21T00:20:20;98966.671875;;;3.120000;74.152344
77517;BME280;68414;53.946;27.634;2024-02-21T00:21:20;98964.171875;;;3.000000;73.271484
77517;BME280;68414;53.946;27.634;2024-02-21T00:22:20;98969.687500;;;2.930000;74.044922
77517;BME280;68414;53.946;27.634;2024-02-21T00:23:20;98965.375000;;;2.870000;74.545898
77517;BME280;68414;53.946;27.634;2024-02-21T00:24:20;98972.187500;;;2.780000;74.562500
77517;BME280;68414;53.946;27.634;2024-02-21T00:25:20;98965.023438;;;2.790000;74.975586
77517;BME280;68414;53.946;27.634;2024-02-21T00:26:20;98970.000000;;;2.700000;74.821289
77517;BME280;68414;53.946;27.634;2024-02-21T00:27:20;98971.609375;;;2.710000;75.550781
77517;BME280;68414;53.946;27.634;2024-02-21T00:28:20;98972.296875;;;2.610000;74.359375
77517;BME280;68414;53.946;27.634;2024-02-21T00:29:20;98971.687500;;;2.540000;75.532227
77517;BME280;68414;53.946;27.634;2024-02-21T00:30:20;98964.031250;;;2.580000;76.246094
77517;BME280;68414;53.946;27.634;2024-02-21T00:31:20;98974.703125;;;2.630000;75.189453
77517;BME280;68414;53.946;27.634;2024-02-21T00:32:20;98971.000000;;;2.640000;75.777344
77517;BME280;68414;53.946;27.634;2024-02-21T00:33:20;98975.000000;;;2.660000;75.052734
77517;BME280;68414;53.946;27.634;2024-02-21T00:34:20;98976.875000;;;2.440000;75.503906
77517;BME280;68414;53.946;27.634;2024-02-21T00:35:20;98975.695312;;;2.570000;76.516602
77517;BME280;68414;53.946;27.634;2024-02-21T00:36:20;98976.796875;;;2.610000;75.967773
77517;BME280;68414;53.946;27.634;2024-02-21T00:37:20;98975.062500;;;2.720000;75.868164
77517;BME280;68414;53.946;27.634;2024-02-21T00:38:20;98975.812500;;;2.670000;74.097656
77517;BME280;68414;53.946;27.634;2024-02-21T00:39:20;98978.898438;;;2.590000;74.072266
77517;BME280;68414;53.946;27.634;2024-02-21T00:40:20;98979.250000;;;2.410000;75.248047
77517;BME280;68414;53.946;27.634;2024-02-21T00:41:20;98980.046875;;;2.410000;75.791016
77517;BME280;68414;53.946;27.634;2024-02-21T00:42:20;98982.484375;;;2.480000;76.326172
77517;BME280;68414;53.946;27.634;2024-02-21T00:43:20;98985.000000;;;2.590000;76.564453
77517;BME280;68414;53.946;27.634;2024-02-21T00:44:20;98981.109375;;;2.670000;76.055664
77517;BME280;68414;53.946;27.634;2024-02-21T00:45:20;98980.609375;;;2.700000;75.572266
77517;BME280;68414;53.946;27.634;2024-02-21T00:46:20;98981.992188;;;2.780000;75.737305
77517;BME280;68414;53.946;27.634;2024-02-21T00:47:20;98984.203125;;;2.860000;75.458008
77517;BME280;68414;53.946;27.634;2024-02-21T00:48:20;98978.195312;;;2.950000;75.029297
77517;BME280;68414;53.946;27.634;2024-02-21T00:49:20;98975.593750;;;3.000000;74.753906
77517;BME280;68414;53.946;27.634;2024-02-21T00:50:20;98980.250000;;;2.880000;73.316406
77517;BME280;68414;53.946;27.634;2024-02-21T00:51:20;98974.890625;;;2.830000;74.561523
77517;BME280;68414;53.946;27.634;2024-02-21T00:52:21;98972.539062;;;2.870000;74.610352
77517;BME280;68414;53.946;27.634;2024-02-21T00:53:20;98977.093750;;;2.910000;74.867188
77517;BME280;68414;53.946;27.634;2024-02-21T00:54:20;98965.375000;;;2.870000;74.458008
77517;BME280;68414;53.946;27.634;2024-02-21T00:55:20;98975.492188;;;2.900000;74.976562
77517;BME280;68414;53.946;27.634;2024-02-21T00:56:20;98977.390625;;;2.950000;74.559570
77517;BME280;68414;53.946;27.634;2024-02-21T00:57:20;98973.265625;;;2.770000;73.200195
77517;BME280;68414;53.946;27.634;2024-02-21T00:58:20;98976.906250;;;2.710000;73.504883
77517;BME280;68414;53.946;27.634;2024-02-21T00:59:20;98973.406250;;;2.650000;74.008789
77517;BME280;68414;53.946;27.634;2024-02-21T01:00:20;98971.437500;;;2.560000;74.992188
77517;BME280;68414;53.946;27.634;2024-02-21T01:02:20;98968.898438;;;2.660000;74.498047
77517;BME280;68414;53.946;27.634;2024-02-21T01:03:20;98972.906250;;;2.680000;75.122070
77517;BME280;68414;53.946;27.634;2024-02-21T01:04:20;98971.546875;;;2.660000;75.031250
77517;BME280;68414;53.946;27.634;2024-02-21T01:05:20;98967.187500;;;2.550000;74.936523
77517;BME280;68414;53.946;27.634;2024-02-21T01:06:20;98972.546875;;;2.600000;75.009766
77517;BME280;68414;53.946;27.634;2024-02-21T01:07:20;98976.304688;;;2.640000;75.233398
77517;BME280;68414;53.946;27.634;2024-02-21T01:08:20;98966.687500;;;2.580000;74.418945
77517;BME280;68414;53.946;27.634;2024-02-21T01:09:20;98978.898438;;;2.590000;74.235352
77517;BME280;68414;53.946;27.634;2024-02-21T01:10:20;98973.726562;;;2.470000;74.574219
77517;BME280;68414;53.946;27.634;2024-02-21T01:11:20;98975.078125;;;2.500000;74.785156
77517;BME280;68414;53.946;27.634;2024-02-21T01:12:20;98975.882812;;;2.500000;74.253906
77517;BME280;68414;53.946;27.634;2024-02-21T01:13:20;98969.218750;;;2.480000;75.108398
77517;BME280;68414;53.946;27.634;2024-02-21T01:14:20;98973.695312;;;2.420000;75.337891
77517;BME280;68414;53.946;27.634;2024-02-21T01:15:20;98974.929688;;;2.340000;75.149414
77517;BME280;68414;53.946;27.634;2024-02-21T01:16:20;98973.421875;;;2.440000;75.752930
77517;BME280;68414;53.946;27.634;2024-02-21T01:17:20;98979.828125;;;2.480000;75.206055
77517;BME280;68414;53.946;27.634;2024-02-21T01:18:20;98979.734375;;;2.380000;75.210938
77517;BME280;68414;53.946;27.634;2024-02-21T01:19:20;98979.765625;;;2.430000;74.946289
77517;BME280;68414;53.946;27.634;2024-02-21T01:20:20;98980.851562;;;2.420000;75.488281
77517;BME280;68414;53.946;27.634;2024-02-21T01:21:20;98980.382812;;;2.500000;75.546875
77517;BME280;68414;53.946;27.634;2024-02-21T01:22:20;98978.593750;;;2.550000;74.305664
77517;BME280;68414;53.946;27.634;2024-02-21T01:23:20;98986.296875;;;2.570000;75.015625
77517;BME280;68414;53.946;27.634;2024-02-21T01:24:20;98980.937500;;;2.520000;74.679688
77517;BME280;68414;53.946;27.634;2024-02-21T01:25:20;98984.203125;;;2.590000;74.637695
77517;BME280;68414;53.946;27.634;2024-02-21T01:26:20;98983.593750;;;2.520000;74.201172
77517;BME280;68414;53.946;27.634;2024-02-21T01:27:20;98981.000000;;;2.570000;73.927734
77517;BME280;68414;53.946;27.634;2024-02-21T01:28:20;98983.343750;;;2.530000;74.737305
77517;BME280;68414;53.946;27.634;2024-02-21T01:29:20;98983.710938;;;2.620000;74.915039
77517;BME280;68414;53.946;27.634;2024-02-21T01:30:20;98979.578125;;;2.490000;73.184570
77517;BME280;68414;53.946;27.634;2024-02-21T01:31:20;98979.828125;;;2.480000;74.989258
77517;BME280;68414;53.946;27.634;2024-02-21T01:32:21;98986.242188;;;2.520000;74.429688
77517;BME280;68414;53.946;27.634;2024-02-21T01:33:20;98977.789062;;;2.550000;74.544922
77517;BME280;68414;53.946;27.634;2024-02-21T01:34:20;98974.953125;;;2.610000;74.794922
77517;BME280;68414;53.946;27.634;2024-02-21T01:35:20;98984.203125;;;2.590000;74.028320
77517;BME280;68414;53.946;27.634;2024-02-21T01:36:20;98977.906250;;;2.650000;73.985352
77517;BME280;68414;53.946;27.634;2024-02-21T01:37:20;98978.515625;;;2.720000;73.998047
77517;BME280;68414;53.946;27.634;2024-02-21T01:38:20;98977.601562;;;2.610000;73.292969
77517;BME280;68414;53.946;27.634;2024-02-21T01:39:20;98980.609375;;;2.700000;74.016602
77517;BME280;68414;53.946;27.634;2024-02-21T01:40:20;98977.484375;;;2.780000;73.724609
77517;BME280;68414;53.946;27.634;2024-02-21T01:41:20;98980.195312;;;2.830000;73.494141
77517;BME280;68414;53.946;27.634;2024-02-21T01:42:22;98976.789062;;;2.880000;73.022461
77517;BME280;68414;53.946;27.634;2024-02-21T01:43:20;98982.046875;;;2.830000;72.252930
77517;BME280;68414;53.946;27.634;2024-02-21T01:44:20;98975.812500;;;2.670000;71.974609
77517;BME280;68414;53.946;27.634;2024-02-21T01:45:20;98984.562500;;;2.670000;73.423828
77517;BME280;68414;53.946;27.634;2024-02-21T01:46:20;98964.093750;;;2.630000;73.002930
77517;BME280;68414;53.946;27.634;2024-02-21T01:47:20;98986.054688;;;2.580000;72.982422
77517;BME280;68414;53.946;27.634;2024-02-21T01:48:20;98986.296875;;;2.570000;73.525391
77517;BME280;68414;53.946;27.634;2024-02-21T01:49:20;98978.898438;;;2.590000;73.299805
77517;BME280;68414;53.946;27.634;2024-02-21T01:50:20;98986.914062;;;2.640000;73.601562
77517;BME280;68414;53.946;27.634;2024-02-21T01:51:20;98981.296875;;;2.600000;72.279297
77517;BME280;68414;53.946;27.634;2024-02-21T01:52:20;98979.507812;;;2.660000;73.323242
77517;BME280;68414;53.946;27.634;2024-02-21T01:53:21;98981.914062;;;2.670000;72.564453
77517;BME280;68414;53.946;27.634;2024-02-21T01:54:20;98987.523438;;;2.710000;72.252930
77517;BME280;68414;53.946;27.634;2024-02-21T01:55:21;98984.125000;;;2.760000;72.817383
77517;BME280;68414;53.946;27.634;2024-02-21T01:56:20;98984.953125;;;2.810000;72.334961
77517;BME280;68414;53.946;27.634;2024-02-21T01:57:20;98984.500000;;;2.890000;72.544922
77517;BME280;68414;53.946;27.634;2024-02-21T01:58:22;98981.351562;;;2.920000;71.722656
77517;BME280;68414;53.946;27.634;2024-02-21T01:59:20;98983.453125;;;2.900000;72.297852
77517;BME280;68414;53.946;27.634;2024-02-21T02:00:20;98980.195312;;;2.830000;70.934570
77517;BME280;68414;53.946;27.634;2024-02-21T02:01:20;98977.789062;;;2.820000;71.944336
77517;BME280;68414;53.946;27.634;2024-02-21T02:02:20;98986.421875;;;2.670000;71.833008
77517;BME280;68414;53.946;27.634;2024-02-21T02:03:20;98975.812500;;;2.670000;72.670898
77517;BME280;68414;53.946;27.634;2024-02-21T02:04:22;98977.960938;;;2.700000;72.982422
77517;BME280;68414;53.946;27.634;2024-02-21T02:05:20;98984.875000;;;2.710000;72.350586
77517;BME280;68414;53.946;27.634;2024-02-21T02:06:20;98977.484375;;;2.780000;72.635742
77517;BME280;68414;53.946;27.634;2024-02-21T02:07:20;98978.593750;;;2.820000;72.686523
77517;BME280;68414;53.946;27.634;2024-02-21T02:08:20;98977.960938;;;2.700000;71.631836
77517;BME280;68414;53.946;27.634;2024-02-21T02:09:20;98981.492188;;;2.540000;71.951172
77517;BME280;68414;53.946;27.634;2024-02-21T02:10:20;98979.273438;;;2.460000;72.701172
77517;BME280;68414;53.946;27.634;2024-02-21T02:11:20;98980.875000;;;2.470000;72.581055
77517;BME280;68414;53.946;27.634;2024-02-21T02:12:20;98980.687500;;;2.530000;72.974609
77517;BME280;68414;53.946;27.634;2024-02-21T02:13:20;98975.695312;;;2.570000;72.992188
77517;BME280;68414;53.946;27.634;2024-02-21T02:14:20;98981.609375;;;2.640000;72.904297
77517;BME280;68414;53.946;27.634;2024-02-21T02:15:20;98976.359375;;;2.690000;72.859375
77517;BME280;68414;53.946;27.634;2024-02-21T02:16:20;98975.914062;;;2.770000;72.536133
77517;BME280;68414;53.946;27.634;2024-02-21T02:17:20;98979.890625;;;2.800000;71.865234
77517;BME280;68414;53.946;27.634;2024-02-21T02:18:21;98983.898438;;;2.820000;72.250977
77517;BME280;68414;53.946;27.634;2024-02-21T02:19:20;98987.109375;;;2.840000;71.981445
77517;BME280;68414;53.946;27.634;2024-02-21T02:20:20;98984.703125;;;2.830000;70.934570
77517;BME280;68414;53.946;27.634;2024-02-21T02:22:22;98977.093750;;;2.910000;72.025391
77517;BME280;68414;53.946;27.634;2024-02-21T02:24:20;98986.109375;;;2.630000;71.336914
77517;BME280;68414;53.946;27.634;2024-02-21T02:25:20;98980.445312;;;2.550000;72.215820
77517;BME280;68414;53.946;27.634;2024-02-21T02:26:20;98976.187500;;;2.540000;72.713867
77517;BME280;68414;53.946;27.634;2024-02-21T02:27:20;98985.312500;;;2.630000;72.599609
77517;BME280;68414;53.946;27.634;2024-02-21T02:28:20;98984.203125;;;2.590000;71.601562
77517;BME280;68414;53.946;27.634;2024-02-21T02:29:20;98983.648438;;;2.570000;72.175781
77517;BME280;68414;53.946;27.634;2024-02-21T02:30:20;98987.296875;;;2.510000;73.329102
77517;BME280;68414;53.946;27.634;2024-02-21T02:31:20;98983.531250;;;2.470000;72.821289
77517;BME280;68414;53.946;27.634;2024-02-21T02:32:20;98988.031250;;;2.460000;72.853516
77517;BME280;68414;53.946;27.634;2024-02-21T02:33:20;98986.093750;;;2.370000;72.847656
77517;BME280;68414;53.946;27.634;2024-02-21T02:34:20;98987.687500;;;2.380000;74.080078
77517;BME280;68414;53.946;27.634;2024-02-21T02:35:20;98989.851562;;;2.410000;73.486328
77517;BME280;68414;53.946;27.634;2024-02-21T02:36:20;98993.828125;;;2.430000;73.794922
77517;BME280;68414;53.946;27.634;2024-02-21T02:37:20;98990.187500;;;2.490000;73.641602
77517;BME280;68414;53.946;27.634;2024-02-21T02:38:20;98996.421875;;;2.600000;73.562500
77517;BME280;68414;53.946;27.634;2024-02-21T02:39:20;98994.625000;;;2.650000;73.061523
77517;BME280;68414;53.946;27.634;2024-02-21T02:40:20;98988.828125;;;2.470000;72.102539
77517;BME280;68414;53.946;27.634;2024-02-21T02:41:20;98992.062500;;;2.270000;72.745117
77517;BME280;68414;53.946;27.634;2024-02-21T02:42:20;98997.187500;;;2.330000;73.789062
77517;BME280;68414;53.946;27.634;2024-02-21T02:43:20;98996.320312;;;2.280000;73.050781
77517;BME280;68414;53.946;27.634;2024-02-21T02:44:20;98991.265625;;;2.260000;74.200195
77517;BME280;68414;53.946;27.634;2024-02-21T02:45:21;98993.484375;;;2.340000;74.149414
77517;BME280;68414;53.946;27.634;2024-02-21T02:46:20;98995.679688;;;2.430000;73.489258
77517;BME280;68414;53.946;27.634;2024-02-21T02:47:20;98998.890625;;;2.450000;73.709961
77517;BME280;68414;53.946;27.634;2024-02-21T02:48:20;98999.500000;;;2.520000;74.027344
77517;BME280;68414;53.946;27.634;2024-02-21T02:49:20;99000.609375;;;2.560000;73.447266
77517;BME280;68414;53.946;27.634;2024-02-21T02:50:20;99000.117188;;;2.590000;72.875000
77517;BME280;68414;53.946;27.634;2024-02-21T02:51:20;98998.015625;;;2.610000;72.900391
77517;BME280;68414;53.946;27.634;2024-02-21T02:52:20;98997.406250;;;2.540000;72.767578
77517;BME280;68414;53.946;27.634;2024-02-21T02:53:20;98992.656250;;;2.560000;72.979492
77517;BME280;68414;53.946;27.634;2024-02-21T02:54:20;98990.992188;;;2.500000;72.032227
77517;BME280;68414;53.946;27.634;2024-02-21T02:55:20;99002.484375;;;2.330000;73.168945
77517;BME280;68414;53.946;27.634;2024-02-21T02:56:20;98999.343750;;;2.370000;74.283203
77517;BME280;68414;53.946;27.634;2024-02-21T02:57:21;98998.859375;;;2.400000;73.418945
77517;BME280;68414;53.946;27.634;2024-02-21T02:58:20;98996.140625;;;2.340000;73.833984
77517;BME280;68414;53.946;27.634;2024-02-21T02:59:20;98998.234375;;;2.320000;73.733398
77517;BME280;68414;53.946;27.634;2024-02-21T03:00:20;99006.007812;;;2.390000;74.222656
77517;BME280;68414;53.946;27.634;2024-02-21T03:01:20;98999.906250;;;2.390000;73.722656
77517;BME280;68414;53.946;27.634;2024-02-21T03:02:20;99004.187500;;;2.450000;73.579102
77517;BME280;68414;53.946;27.634;2024-02-21T03:03:20;99009.062500;;;2.530000;73.290039
77517;BME280;68414;53.946;27.634;2024-02-21T03:04:20;99008.406250;;;2.410000;72.375977
77517;BME280;68414;53.946;27.634;2024-02-21T03:05:20;99013.187500;;;2.440000;74.262695
77517;BME280;68414;53.946;27.634;2024-02-21T03:06:20;99012.703125;;;2.470000;73.549805
77517;BME280;68414;53.946;27.634;2024-02-21T03:07:20;99009.062500;;;2.530000;73.224609
77517;BME280;68414;53.946;27.634;2024-02-21T03:08:20;99006.718750;;;2.560000;73.197266
77517;BME280;68414;53.946;27.634;2024-02-21T03:09:20;99011.281250;;;2.610000;73.422852
77517;BME280;68414;53.946;27.634;2024-02-21T03:10:20;99011.781250;;;2.580000;73.471680
77517;BME280;68414;53.946;27.634;2024-02-21T03:11:20;99009.492188;;;2.450000;72.904297
77517;BME280;68414;53.946;27.634;2024-02-21T03:12:20;99012.390625;;;2.430000;73.578125
77517;BME280;68414;53.946;27.634;2024-02-21T03:13:20;99010.867188;;;2.250000;73.720703
77517;BME280;68414;53.946;27.634;2024-02-21T03:14:20;99015.859375;;;2.220000;75.083984
77517;BME280;68414;53.946;27.634;2024-02-21T03:15:20;99005.703125;;;2.350000;75.164062
77517;BME280;68414;53.946;27.634;2024-02-21T03:16:20;99011.898438;;;2.460000;74.311523
77517;BME280;68414;53.946;27.634;2024-02-21T03:17:20;99011.093750;;;2.460000;73.397461
77517;BME280;68414;53.946;27.634;2024-02-21T03:18:20;99008.687500;;;2.440000;72.882812
77517;BME280;68414;53.946;27.634;2024-02-21T03:19:20;99012.765625;;;2.520000;74.038086
77517;BME280;68414;53.946;27.634;2024-02-21T03:20:20;99009.921875;;;2.580000;73.504883
77517;BME280;68414;53.946;27.634;2024-02-21T03:21:20;99009.125000;;;2.580000;73.319336
77517;BME280;68414;53.946;27.634;2024-02-21T03:22:20;99016.531250;;;2.560000;72.598633
77517;BME280;68414;53.946;27.634;2024-02-21T03:23:20;99009.062500;;;2.530000;73.203125
77517;BME280;68414;53.946;27.634;2024-02-21T03:24:20;99015.718750;;;2.550000;73.423828
77517;BME280;68414;53.946;27.634;2024-02-21T03:25:20;99005.976562;;;2.610000;73.585938
77517;BME280;68414;53.946;27.634;2024-02-21T03:26:20;99017.750000;;;2.700000;73.907227
77517;BME280;68414;53.946;27.634;2024-02-21T03:27:20;99013.062500;;;2.770000;73.494141
77517;BME280;68414;53.946;27.634;2024-02-21T03:28:20;99015.234375;;;2.850000;72.909180
77517;BME280;68414;53.946;27.634;2024-02-21T03:29:20;99011.039062;;;2.890000;72.828125
77517;BME280;68414;53.946;27.634;2024-02-21T03:30:20;99014.750000;;;2.880000;71.148438
77517;BME280;68414;53.946;27.634;2024-02-21T03:31:20;99016.656250;;;2.930000;72.694336
77517;BME280;68414;53.946;27.634;2024-02-21T03:32:20;99015.234375;;;2.850000;72.114258
77517;BME280;68414;53.946;27.634;2024-02-21T03:33:20;99011.781250;;;2.850000;72.495117
77517;BME280;68414;53.946;27.634;2024-02-21T03:34:20;99009.187500;;;2.900000;72.579102
77517;BME280;68414;53.946;27.634;2024-02-21T03:35:20;99017.835938;;;2.800000;72.487305
77517;BME280;68414;53.946;27.634;2024-02-21T03:36:20;99011.343750;;;2.660000;71.646484
77517;BME280;68414;53.946;27.634;2024-02-21T03:37:20;99018.125000;;;2.570000;72.675781
77517;BME280;68414;53.946;27.634;2024-02-21T03:38:20;99005.976562;;;2.610000;73.628906
77517;BME280;68414;53.946;27.634;2024-02-21T03:39:20;99009.242188;;;2.680000;73.250000
77517;BME280;68414;53.946;27.634;2024-02-21T03:40:20;99013.062500;;;2.770000;73.341797
77517;BME280;68414;53.946;27.634;2024-02-21T03:41:20;99018.359375;;;2.770000;73.124023
77517;BME280;68414;53.946;27.634;2024-02-21T03:42:20;99018.890625;;;2.790000;72.778320
77517;BME280;68414;53.946;27.634;2024-02-21T03:43:20;99021.148438;;;2.650000;72.583008
77517;BME280;68414;53.946;27.634;2024-02-21T03:44:20;99013.562500;;;2.520000;73.005859
77517;BME280;68414;53.946;27.634;2024-02-21T03:45:20;99007.398438;;;2.470000;72.864258
77517;BME280;68414;53.946;27.634;2024-02-21T03:46:20;99012.601562;;;2.370000;73.576172
77517;BME280;68414;53.946;27.634;2024-02-21T03:47:20;99015.320312;;;2.420000;74.542969
77517;BME280;68414;53.946;27.634;2024-02-21T03:48:20;99022.015625;;;2.490000;74.370117
77517;BME280;68414;53.946;27.634;2024-02-21T03:49:20;99022.718750;;;2.400000;74.485352
77517;BME280;68414;53.946;27.634;2024-02-21T03:50:20;99022.812500;;;2.500000;74.666016
77517;BME280;68414;53.946;27.634;2024-02-21T03:51:20;99019.046875;;;2.460000;73.462891
77517;BME280;68414;53.946;27.634;2024-02-21T03:52:20;99018.062500;;;2.520000;74.190430
77517;BME280;68414;53.946;27.634;2024-02-21T03:53:20;99024.546875;;;2.610000;74.434570
77517;BME280;68414;53.946;27.634;2024-02-21T03:54:20;99019.851562;;;2.680000;73.717773
77517;BME280;68414;53.946;27.634;2024-02-21T03:55:20;99014.609375;;;2.730000;72.954102
77517;BME280;68414;53.946;27.634;2024-02-21T03:56:20;99014.140625;;;2.810000;73.423828
77517;BME280;68414;53.946;27.634;2024-02-21T03:57:20;99013.937500;;;2.880000;72.793945
77517;BME280;68414;53.946;27.634;2024-02-21T03:58:20;99013.195312;;;2.920000;72.583984
77517;BME280;68414;53.946;27.634;2024-02-21T03:59:20;99006.343750;;;2.960000;72.676758
77517;BME280;68414;53.946;27.634;2024-02-21T04:00:20;99011.945312;;;3.000000;72.595703
77517;BME280;68414;53.946;27.634;2024-02-21T04:01:20;99008.937500;;;2.910000;71.654297
77517;BME280;68414;53.946;27.634;2024-02-21T04:02:20;99014.187500;;;2.860000;71.538086
77517;BME280;68414;53.946;27.634;2024-02-21T04:03:20;99017.093750;;;2.850000;72.723633
77517;BME280;68414;53.946;27.634;2024-02-21T04:04:20;99017.343750;;;2.830000;71.697266
77517;BME280;68414;53.946;27.634;2024-02-21T04:05:20;99012.937500;;;2.670000;71.429688
77517;BME280;68414;53.946;27.634;2024-02-21T04:06:20;99013.500000;;;2.690000;72.620117
77517;BME280;68414;53.946;27.634;2024-02-21T04:07:20;99014.546875;;;2.680000;71.986328
77517;BME280;68414;53.946;27.634;2024-02-21T04:08:20;99011.953125;;;2.730000;72.594727
77517;BME280;68414;53.946;27.634;2024-02-21T04:09:20;99010.351562;;;2.720000;71.351562
77517;BME280;68414;53.946;27.634;2024-02-21T04:10:20;99009.796875;;;2.700000;72.426758
77517;BME280;68414;53.946;27.634;2024-02-21T04:11:20;99011.953125;;;2.730000;72.573242
77517;BME280;68414;53.946;27.634;2024-02-21T04:12:20;99016.234375;;;2.790000;72.898438
77517;BME280;68414;53.946;27.634;2024-02-21T04:13:20;99014.687500;;;2.830000;72.612305
77517;BME280;68414;53.946;27.634;2024-02-21T04:14:20;99018.437500;;;2.600000;71.659180
77517;BME280;68414;53.946;27.634;2024-02-21T04:15:20;99019.109375;;;2.510000;73.035156
77517;BME280;68414;53.946;27.634;2024-02-21T04:16:20;99018.562500;;;2.490000;73.173828
77517;BME280;68414;53.946;27.634;2024-02-21T04:17:20;99012.109375;;;2.400000;72.810547
77517;BME280;68414;53.946;27.634;2024-02-21T04:18:20;99016.296875;;;2.350000;73.021484
77517;BME280;68414;53.946;27.634;2024-02-21T04:19:20;99024.015625;;;2.370000;73.838867
77517;BME280;68414;53.946;27.634;2024-02-21T04:20:20;99023.078125;;;2.260000;73.526367
77517;BME280;68414;53.946;27.634;2024-02-21T04:21:20;99015.500000;;;2.350000;74.585938
77517;BME280;68414;53.946;27.634;2024-02-21T04:22:20;99019.507812;;;2.380000;74.025391
77517;BME280;68414;53.946;27.634;2024-02-21T04:23:20;99023.210938;;;2.370000;73.521484
77517;BME280;68414;53.946;27.634;2024-02-21T04:24:20;99024.328125;;;2.410000;73.040039
77517;BME280;68414;53.946;27.634;2024-02-21T04:25:20;99024.843750;;;2.430000;73.859375
77517;BME280;68414;53.946;27.634;2024-02-21T04:26:20;99020.906250;;;2.450000;73.134766
77517;BME280;68414;53.946;27.634;2024-02-21T04:27:20;99016.296875;;;2.350000;72.847656
77517;BME280;68414;53.946;27.634;2024-02-21T04:28:20;99025.484375;;;2.280000;73.888672
77517;BME280;68414;53.946;27.634;2024-02-21T04:29:20;99023.453125;;;2.350000;74.259766
77517;BME280;68414;53.946;27.634;2024-02-21T04:30:20;99025.367188;;;2.400000;74.333008
77517;BME280;68414;53.946;27.634;2024-02-21T04:31:21;99029.476562;;;2.520000;74.279297
77517;BME280;68414;53.946;27.634;2024-02-21T04:32:20;99026.265625;;;2.500000;72.328125
77517;BME280;68414;53.946;27.634;2024-02-21T04:33:20;99026.968750;;;2.410000;72.593750
77517;BME280;68414;53.946;27.634;2024-02-21T04:34:20;99030.523438;;;2.510000;72.698242
77517;BME280;68414;53.946;27.634;2024-02-21T04:35:22;99026.265625;;;2.500000;72.545898
77517;BME280;68414;53.946;27.634;2024-02-21T04:36:20;99029.625000;;;2.410000;72.387695